Pagina principală
METAR-TAF:

METAR-TAF

Aeroporturi :

Nebraska City Municipal Airport

Nebraska City, Nebraska, Statele Unite ale Americii

Latitudine: 40-36N, longitudine: 095-51W, elevație: 354 m

Observații meteo curente

Raportul a fost făcut în urmă cu 31 de minute, la 22:55 UTC
Vânt calm
Temperatură 29°C
Umiditate 58%
Presiune 1018 hPa
Vizibilitate: 16.1 km
Nori împrăștiați la o înălțime de 4000 picior

METAR: KAFK 232255Z AUTO 00000KT 10SM SCT040 29/20 A3006 RMK AO2 T02850198

Ora: 18:26 (23:26 UTC)


TAF: lipsă

Observații și prognoze meteo pentru peste 4.000 de aeroporturi (rapoarte METAR și TAF).

Stațiile disponibile sunt reprezentate pe hartă prin puncte galbene și roșii.

Țineți indicatorul mouse-ului pe punctul dorit pentru a vedea denumirea stației.

Apoi, faceți clic pentru a vedea observațiile și prognozele meteorologice.

Pentru a schimba harta: Pentru mărire, faceți clic pe butoanele verzi cu cruce neagră; pentru micșorare, pe butonul verde cu o liniuță; pentru hărți învecinate, pe săgețile verzi.


METAR-TAF: